createdAt,value
2019-01-16T00:00:52.845Z,6.36
2019-01-16T00:04:24.127Z,6.38
2019-01-16T00:07:58.978Z,6.38
2019-01-16T00:11:41.059Z,6.36
2019-01-16T00:15:07.422Z,6.41
2019-01-16T00:22:47.197Z,6.44
2019-01-16T00:26:25.284Z,5.99
2019-01-16T00:30:00.246Z,6.41
2019-01-16T00:33:39.683Z,6.45
2019-01-16T00:37:08.569Z,6.18
2019-01-16T00:40:44.256Z,6.45
2019-01-16T00:44:18.995Z,6.40
2019-01-16T00:47:53.332Z,6.53
2019-01-16T00:51:18.695Z,6.52
2019-01-16T00:54:33.873Z,6.47
2019-01-16T00:58:02.047Z,6.46
2019-01-16T01:01:15.743Z,6.46
2019-01-16T01:04:44.522Z,6.40
2019-01-16T01:08:05.989Z,6.47
2019-01-16T01:11:43.784Z,6.43
2019-01-16T01:15:12.272Z,6.48
2019-01-16T01:18:40.513Z,6.47
2019-01-16T01:22:03.599Z,6.39
2019-01-16T01:25:25.251Z,6.39
2019-01-16T01:28:47.562Z,6.44
2019-01-16T01:32:09.012Z,6.41
2019-01-16T01:35:30.468Z,6.50
2019-01-16T01:39:03.799Z,6.42
2019-01-16T01:42:20.334Z,6.45
2019-01-16T01:45:41.700Z,6.39
2019-01-16T01:49:17.015Z,6.46
2019-01-16T01:52:48.617Z,6.46
2019-01-16T01:56:15.040Z,6.39
2019-01-16T01:59:32.560Z,6.46
2019-01-16T02:02:48.413Z,6.46
2019-01-16T02:06:17.047Z,6.54
2019-01-16T02:09:43.047Z,6.47
2019-01-16T02:13:04.208Z,6.50
2019-01-16T02:16:23.815Z,6.48
2019-01-16T02:19:48.521Z,6.41
2019-01-16T02:23:09.668Z,6.42
2019-01-16T02:26:35.222Z,6.43
2019-01-16T02:29:56.703Z,6.43
2019-01-16T02:33:25.324Z,6.41
2019-01-16T02:36:56.818Z,6.46
2019-01-16T02:40:11.324Z,6.40
2019-01-16T02:43:32.480Z,6.42
2019-01-16T02:46:53.938Z,6.42
2019-01-16T02:50:15.471Z,6.41
2019-01-16T02:53:36.820Z,6.43
2019-01-16T02:57:06.645Z,6.48
2019-01-16T03:00:29.691Z,6.51
2019-01-16T03:03:42.160Z,6.45
2019-01-16T03:06:55.219Z,6.48
2019-01-16T03:10:16.291Z,6.46
2019-01-16T03:13:27.178Z,6.42
2019-01-16T03:16:53.449Z,6.42
2019-01-16T03:20:15.041Z,6.42
2019-01-16T03:23:43.623Z,6.38
2019-01-16T03:27:05.498Z,6.45
2019-01-16T03:30:20.322Z,6.45
2019-01-16T03:33:47.190Z,6.41
2019-01-16T03:37:10.049Z,6.39
2019-01-16T03:40:32.801Z,6.34
2019-01-16T03:43:56.961Z,6.32
2019-01-16T03:47:14.684Z,6.32
2019-01-16T03:50:50.330Z,6.39
2019-01-16T03:54:11.716Z,6.39
2019-01-16T03:57:27.228Z,6.33
2019-01-16T04:00:48.356Z,6.32
2019-01-16T04:03:58.728Z,6.28
2019-01-16T04:07:18.580Z,6.26
2019-01-16T04:10:52.416Z,6.14
2019-01-16T04:14:14.942Z,6.15
2019-01-16T04:17:34.338Z,6.09
2019-01-16T04:20:59.635Z,6.14
2019-01-16T04:24:20.821Z,6.07
2019-01-16T04:27:52.696Z,6.10
2019-01-16T04:31:13.876Z,6.05
2019-01-16T04:34:42.031Z,6.02
2019-01-16T04:38:04.617Z,6.02
2019-01-16T04:41:25.746Z,6.02
2019-01-16T04:45:03.748Z,6.03
2019-01-16T04:48:36.239Z,6.10
2019-01-16T04:51:58.098Z,6.09
2019-01-16T04:55:27.494Z,6.13
2019-01-16T04:59:02.150Z,6.08
2019-01-16T05:02:23.808Z,6.12
2019-01-16T05:05:45.522Z,6.14
2019-01-16T05:09:08.064Z,6.11
2019-01-16T05:12:35.132Z,6.13
2019-01-16T05:15:56.779Z,6.11
2019-01-16T05:19:18.397Z,6.13
2019-01-16T05:22:35.615Z,6.17
2019-01-16T05:26:01.066Z,6.19
2019-01-16T05:29:23.325Z,6.17
2019-01-16T05:32:49.663Z,6.13
2019-01-16T05:36:11.107Z,6.13
2019-01-16T05:39:50.339Z,6.21
2019-01-16T05:43:09.118Z,6.17
2019-01-16T05:46:40.438Z,6.20
2019-01-16T05:50:18.737Z,6.16
2019-01-16T05:53:38.970Z,6.17
2019-01-16T05:56:58.721Z,6.17
2019-01-16T06:00:17.071Z,6.21
2019-01-16T06:03:32.198Z,6.26
2019-01-16T06:06:53.505Z,6.26
2019-01-16T06:10:10.423Z,6.26
2019-01-16T06:13:32.894Z,6.24
2019-01-16T06:17:01.620Z,6.23
2019-01-16T06:20:26.591Z,6.26
2019-01-16T06:23:44.637Z,6.32
2019-01-16T06:27:10.239Z,6.27
2019-01-16T06:30:36.825Z,6.28
2019-01-16T06:33:58.266Z,6.32
2019-01-16T06:37:28.679Z,6.31
2019-01-16T06:40:49.991Z,6.28
2019-01-16T06:44:11.612Z,6.39
2019-01-16T06:47:25.956Z,6.33
2019-01-16T06:55:11.395Z,6.36
2019-01-16T06:58:52.367Z,6.36
2019-01-16T07:02:27.808Z,6.42
2019-01-16T07:06:10.087Z,6.39
2019-01-16T07:09:45.476Z,6.42
2019-01-16T07:13:20.690Z,5.97
2019-01-16T07:16:43.210Z,6.52
2019-01-16T07:20:21.756Z,6.47
2019-01-16T07:24:03.999Z,6.12
2019-01-16T07:27:39.686Z,6.46
2019-01-16T07:31:21.661Z,6.58
2019-01-16T07:34:56.301Z,6.45
2019-01-16T07:38:38.277Z,6.33
2019-01-16T07:42:13.431Z,6.39
2019-01-16T07:45:53.173Z,6.46
2019-01-16T07:49:34.363Z,6.42
2019-01-16T07:53:18.231Z,6.42
2019-01-16T07:56:53.134Z,6.37
2019-01-16T08:00:26.474Z,6.44
2019-01-16T08:04:02.124Z,6.47
2019-01-16T08:07:44.110Z,6.42
2019-01-16T08:11:19.514Z,6.35
2019-01-16T08:14:53.071Z,6.36
2019-01-16T08:18:35.131Z,6.10
2019-01-16T08:22:09.912Z,6.32
2019-01-16T08:25:51.881Z,6.06
2019-01-16T08:29:28.215Z,6.41
2019-01-16T08:33:10.169Z,6.00
2019-01-16T08:36:45.397Z,5.88
2019-01-16T08:40:27.824Z,6.43
2019-01-16T08:44:02.637Z,5.83
2019-01-16T08:47:38.912Z,6.29
2019-01-16T08:51:15.542Z,6.35
2019-01-16T08:54:57.621Z,6.27
2019-01-16T08:58:32.755Z,6.35
2019-01-16T09:02:07.899Z,6.31
2019-01-16T09:05:40.529Z,6.35
2019-01-16T09:09:03.400Z,6.30
2019-01-16T09:12:46.607Z,6.31
2019-01-16T09:16:28.677Z,6.34
2019-01-16T09:20:03.729Z,5.78
2019-01-16T09:23:43.124Z,6.42
2019-01-16T09:27:25.106Z,6.25
2019-01-16T09:31:01.087Z,5.89
2019-01-16T09:34:35.812Z,6.31
2019-01-16T09:38:11.102Z,6.34
2019-01-16T09:41:53.073Z,6.28
2019-01-16T09:45:28.447Z,6.38
2019-01-16T09:49:00.528Z,6.24
2019-01-16T09:52:35.501Z,6.29
2019-01-16T09:56:17.542Z,6.43
2019-01-16T09:59:58.806Z,6.26
2019-01-16T10:03:40.782Z,6.25
2019-01-16T10:07:06.179Z,6.35
2019-01-16T10:10:41.147Z,6.33
2019-01-16T10:14:06.115Z,6.38
2019-01-16T10:17:48.354Z,6.21
2019-01-16T10:21:23.793Z,6.39
2019-01-16T10:25:01.851Z,6.29
2019-01-16T10:28:44.058Z,6.43
2019-01-16T10:32:18.731Z,6.43
2019-01-16T10:35:42.807Z,6.28
2019-01-16T10:39:26.389Z,6.39
2019-01-16T10:43:01.041Z,6.31
2019-01-16T10:46:36.657Z,7.15
2019-01-16T10:50:12.204Z,6.57
2019-01-16T10:53:48.202Z,6.46
2019-01-16T10:57:23.418Z,6.31
2019-01-16T11:00:58.683Z,6.32
2019-01-16T11:04:40.655Z,6.40
2019-01-16T11:08:03.161Z,6.36
2019-01-16T11:15:46.980Z,6.38
2019-01-16T11:19:10.295Z,6.34
2019-01-16T11:22:52.282Z,6.22
2019-01-16T11:26:17.630Z,6.26
2019-01-16T11:29:59.895Z,6.17
2019-01-16T11:33:35.195Z,6.22
2019-01-16T11:37:19.348Z,6.12
2019-01-16T11:40:46.708Z,6.13
2019-01-16T11:44:28.656Z,6.30
2019-01-16T11:48:04.583Z,6.27
2019-01-16T11:51:46.910Z,6.29
2019-01-16T11:55:24.962Z,6.33
2019-01-16T11:58:48.415Z,6.49
2019-01-16T12:02:38.274Z,6.36
2019-01-16T12:06:21.169Z,6.22
2019-01-16T12:10:05.021Z,6.25
2019-01-16T12:13:38.417Z,6.22
2019-01-16T12:17:20.396Z,6.29
2019-01-16T12:20:53.854Z,6.25
2019-01-16T12:24:41.961Z,6.34
2019-01-16T12:28:16.960Z,6.17
2019-01-16T12:32:00.024Z,6.13
2019-01-16T12:35:35.303Z,5.60
2019-01-16T12:38:58.940Z,6.14
2019-01-16T12:42:21.822Z,6.16
2019-01-16T12:45:43.862Z,6.13
2019-01-16T12:49:19.147Z,6.12
2019-01-16T12:53:01.121Z,6.12
2019-01-16T12:56:36.156Z,6.14
2019-01-16T13:00:11.527Z,5.61
2019-01-16T13:03:53.504Z,5.72
2019-01-16T13:07:28.433Z,5.72
2019-01-16T13:11:03.637Z,6.04
2019-01-16T13:14:35.105Z,6.15
2019-01-16T13:18:08.510Z,6.13
2019-01-16T13:21:43.262Z,6.27
2019-01-16T13:25:25.366Z,6.57
2019-01-16T13:29:00.508Z,6.20
2019-01-16T13:32:42.449Z,6.42
2019-01-16T13:36:17.894Z,6.34
2019-01-16T13:39:59.854Z,5.99
2019-01-16T13:43:34.502Z,6.01
2019-01-16T13:47:12.629Z,6.22
2019-01-16T13:50:54.324Z,6.29
2019-01-16T13:54:29.860Z,6.29
2019-01-16T13:58:11.859Z,6.28
2019-01-16T14:01:50.349Z,6.28
2019-01-16T14:05:32.392Z,6.28
2019-01-16T14:09:07.841Z,6.40
2019-01-16T14:12:49.914Z,6.38
2019-01-16T14:16:24.965Z,6.25
2019-01-16T14:20:06.961Z,6.34
2019-01-16T14:23:41.705Z,5.96
2019-01-16T14:27:24.178Z,6.29
2019-01-16T14:30:59.067Z,6.36
2019-01-16T14:34:34.387Z,5.97
2019-01-16T14:38:16.355Z,5.94
2019-01-16T14:41:51.249Z,6.29
2019-01-16T14:49:27.944Z,6.37
2019-01-16T14:52:51.400Z,5.86
2019-01-16T14:56:26.648Z,6.28
2019-01-16T14:59:53.701Z,6.38
2019-01-16T15:03:28.863Z,6.36
2019-01-16T15:07:04.247Z,6.24
2019-01-16T15:10:39.331Z,6.25
2019-01-16T15:14:21.326Z,6.33
2019-01-16T15:17:56.017Z,6.36
2019-01-16T15:21:31.276Z,6.41
2019-01-16T15:24:53.620Z,6.34
2019-01-16T15:28:35.636Z,6.31
2019-01-16T15:32:10.704Z,6.37
2019-01-16T15:35:48.153Z,5.89
2019-01-16T15:39:31.304Z,6.37
2019-01-16T15:43:06.783Z,6.36
2019-01-16T15:46:42.366Z,6.28
2019-01-16T15:50:17.673Z,6.23
2019-01-16T15:53:59.622Z,6.23
2019-01-16T15:57:31.536Z,6.27
2019-01-16T16:01:13.862Z,6.21
2019-01-16T16:04:48.630Z,5.81
2019-01-16T16:08:30.642Z,6.34
2019-01-16T16:12:01.426Z,6.23
2019-01-16T16:15:43.383Z,5.77
2019-01-16T16:19:21.881Z,6.21
2019-01-16T16:22:51.250Z,6.26
2019-01-16T16:26:25.874Z,6.57
2019-01-16T16:30:01.333Z,6.36
2019-01-16T16:33:34.940Z,6.35
2019-01-16T16:37:10.184Z,6.17
2019-01-16T16:40:52.465Z,6.12
2019-01-16T16:44:27.094Z,6.07
2019-01-16T16:48:02.274Z,5.98
2019-01-16T16:51:25.360Z,6.08
2019-01-16T16:55:00.966Z,6.01
2019-01-16T16:58:42.943Z,6.07
2019-01-16T17:02:09.809Z,6.08
2019-01-16T17:05:44.503Z,6.04
2019-01-16T17:09:26.637Z,6.04
2019-01-16T17:13:08.429Z,5.51
2019-01-16T17:16:50.624Z,6.16
2019-01-16T17:20:32.701Z,6.08
2019-01-16T17:23:56.948Z,5.95
2019-01-16T17:27:38.947Z,6.01
2019-01-16T17:31:01.495Z,5.97
2019-01-16T17:34:43.498Z,5.86
2019-01-16T17:38:18.396Z,5.88
2019-01-16T17:42:00.964Z,5.86
2019-01-16T17:45:36.687Z,5.31
2019-01-16T17:49:07.821Z,5.80
2019-01-16T17:52:43.122Z,5.76
2019-01-16T17:56:25.107Z,5.51
2019-01-16T18:00:06.026Z,5.82
2019-01-16T18:03:50.282Z,5.85
2019-01-16T18:07:28.761Z,5.79
2019-01-16T18:11:10.729Z,5.30
2019-01-16T18:14:48.556Z,5.84
2019-01-16T18:18:30.539Z,5.72
2019-01-16T18:22:05.404Z,5.86
2019-01-16T18:25:48.039Z,5.78
2019-01-16T18:29:23.429Z,5.87
2019-01-16T18:33:05.803Z,5.83
2019-01-16T18:36:44.706Z,5.85
2019-01-16T18:44:12.939Z,5.81
2019-01-16T18:47:47.476Z,5.80
2019-01-16T18:51:18.181Z,5.90
2019-01-16T18:54:46.812Z,5.88
2019-01-16T18:58:02.576Z,5.88
2019-01-16T19:01:25.107Z,5.95
2019-01-16T19:04:46.613Z,6.05
2019-01-16T19:08:20.508Z,6.02
2019-01-16T19:11:40.572Z,5.96
2019-01-16T19:15:16.436Z,6.02
2019-01-16T19:18:37.763Z,6.04
2019-01-16T19:21:58.283Z,5.97
2019-01-16T19:25:20.856Z,5.96
2019-01-16T19:28:43.445Z,5.96
2019-01-16T19:32:14.985Z,5.93
2019-01-16T19:35:29.517Z,5.99
2019-01-16T19:38:48.792Z,5.96
2019-01-16T19:42:18.097Z,6.02
2019-01-16T19:45:34.084Z,6.00
2019-01-16T19:48:55.404Z,6.02
2019-01-16T19:52:33.343Z,5.96
2019-01-16T19:55:54.800Z,5.99
2019-01-16T19:59:05.651Z,6.03
2019-01-16T20:02:27.349Z,5.97
2019-01-16T20:05:49.590Z,5.97
2019-01-16T20:09:11.281Z,5.91
2019-01-16T20:12:32.468Z,5.90
2019-01-16T20:16:04.605Z,5.93
2019-01-16T20:19:40.419Z,5.83
2019-01-16T20:23:17.814Z,5.86
2019-01-16T20:26:54.612Z,5.85
2019-01-16T20:30:20.477Z,5.83
2019-01-16T20:33:35.797Z,5.81
2019-01-16T20:36:59.627Z,5.80
2019-01-16T20:40:16.706Z,5.81
2019-01-16T20:43:48.212Z,5.77
2019-01-16T20:47:29.179Z,5.85
2019-01-16T20:50:58.050Z,5.82
2019-01-16T20:54:28.762Z,5.82
2019-01-16T20:58:03.240Z,5.80
2019-01-16T21:01:24.467Z,5.76
2019-01-16T21:04:51.357Z,5.83
2019-01-16T21:08:16.696Z,5.80
2019-01-16T21:11:34.003Z,5.88
2019-01-16T21:15:04.130Z,5.84
2019-01-16T21:18:26.765Z,5.79
2019-01-16T21:21:40.640Z,5.80
2019-01-16T21:25:05.929Z,6.69
2019-01-16T21:28:28.563Z,5.88
2019-01-16T21:32:09.427Z,5.73
2019-01-16T21:35:33.950Z,5.77
2019-01-16T21:38:49.235Z,5.72
2019-01-16T21:42:21.235Z,5.71
2019-01-16T21:45:45.928Z,5.75
2019-01-16T21:49:11.217Z,5.70
2019-01-16T21:52:39.795Z,5.64
2019-01-16T21:56:03.247Z,5.71
2019-01-16T21:59:35.244Z,5.65
2019-01-16T22:03:00.536Z,5.70
2019-01-16T22:06:23.909Z,5.73
2019-01-16T22:09:45.042Z,5.70
2019-01-16T22:13:07.882Z,5.71
2019-01-16T22:16:28.512Z,5.70
2019-01-16T22:19:53.809Z,5.73
2019-01-16T22:23:08.158Z,5.71
2019-01-16T22:26:26.284Z,5.76
2019-01-16T22:29:47.443Z,5.70
2019-01-16T22:33:08.343Z,5.75
2019-01-16T22:36:33.838Z,5.65
2019-01-16T22:39:56.069Z,5.59
2019-01-16T22:43:17.924Z,5.62
2019-01-16T22:46:37.477Z,5.66
2019-01-16T22:50:03.714Z,5.65
2019-01-16T22:53:43.302Z,5.76
2019-01-16T22:57:14.567Z,5.66
2019-01-16T23:00:45.175Z,5.65
2019-01-16T23:04:17.344Z,5.58
2019-01-16T23:07:36.279Z,5.61
2019-01-16T23:11:01.940Z,5.69
2019-01-16T23:14:19.708Z,5.64
2019-01-16T23:17:43.539Z,5.63
2019-01-16T23:21:08.860Z,5.62
2019-01-16T23:24:29.521Z,5.62
2019-01-16T23:27:43.093Z,5.57
2019-01-16T23:31:04.386Z,5.55
2019-01-16T23:34:18.527Z,5.64
2019-01-16T23:37:39.507Z,5.53
2019-01-16T23:41:20.935Z,5.40
2019-01-16T23:44:49.316Z,5.41
2019-01-16T23:48:10.495Z,5.43
2019-01-16T23:51:31.687Z,5.48
2019-01-16T23:54:46.912Z,5.44
2019-01-16T23:58:15.740Z,5.32
